sensor_id;sensor_type;location;lat;lon;timestamp;P1;durP1;ratioP1;P2;durP2;ratioP2
53903;SDS011;39812;52.430;16.936;2024-03-23T00:55:39;59.97;;;21.38;;
53903;SDS011;39812;52.430;16.936;2024-03-23T00:58:05;59.30;;;21.48;;
53903;SDS011;39812;52.430;16.936;2024-03-23T01:00:31;52.25;;;20.38;;
53903;SDS011;39812;52.430;16.936;2024-03-23T01:02:57;58.38;;;20.27;;
53903;SDS011;39812;52.430;16.936;2024-03-23T01:05:22;62.65;;;21.88;;
53903;SDS011;39812;52.430;16.936;2024-03-23T01:07:48;53.83;;;19.88;;
53903;SDS011;39812;52.430;16.936;2024-03-23T01:10:14;51.00;;;20.60;;
53903;SDS011;39812;52.430;16.936;2024-03-23T01:12:40;59.97;;;21.52;;
53903;SDS011;39812;52.430;16.936;2024-03-23T01:15:05;65.88;;;22.45;;
53903;SDS011;39812;52.430;16.936;2024-03-23T01:17:31;60.67;;;21.42;;
53903;SDS011;39812;52.430;16.936;2024-03-23T01:19:57;63.15;;;21.27;;
53903;SDS011;39812;52.430;16.936;2024-03-23T01:22:22;55.47;;;20.88;;
53903;SDS011;39812;52.430;16.936;2024-03-23T01:24:48;52.15;;;20.92;;
53903;SDS011;39812;52.430;16.936;2024-03-23T01:27:14;57.47;;;21.52;;
53903;SDS011;39812;52.430;16.936;2024-03-23T01:29:39;54.70;;;20.10;;
53903;SDS011;39812;52.430;16.936;2024-03-23T01:32:05;70.95;;;24.02;;
53903;SDS011;39812;52.430;16.936;2024-03-23T01:34:32;61.75;;;22.13;;
53903;SDS011;39812;52.430;16.936;2024-03-23T01:36:57;61.45;;;24.15;;
53903;SDS011;39812;52.430;16.936;2024-03-23T01:39:23;60.72;;;21.35;;
53903;SDS011;39812;52.430;16.936;2024-03-23T01:41:49;61.70;;;22.85;;
53903;SDS011;39812;52.430;16.936;2024-03-23T01:44:15;62.80;;;22.23;;
53903;SDS011;39812;52.430;16.936;2024-03-23T01:46:41;65.30;;;22.55;;
53903;SDS011;39812;52.430;16.936;2024-03-23T01:49:07;59.78;;;20.90;;
53903;SDS011;39812;52.430;16.936;2024-03-23T01:51:34;57.92;;;20.63;;
53903;SDS011;39812;52.430;16.936;2024-03-23T01:54:04;57.10;;;20.23;;
53903;SDS011;39812;52.430;16.936;2024-03-23T01:56:35;55.40;;;20.33;;
53903;SDS011;39812;52.430;16.936;2024-03-23T01:59:04;56.35;;;22.75;;
53903;SDS011;39812;52.430;16.936;2024-03-23T02:01:31;56.20;;;22.75;;
53903;SDS011;39812;52.430;16.936;2024-03-23T02:03:57;49.38;;;19.90;;
53903;SDS011;39812;52.430;16.936;2024-03-23T02:06:26;61.47;;;22.42;;
53903;SDS011;39812;52.430;16.936;2024-03-23T02:08:52;52.22;;;20.25;;
53903;SDS011;39812;52.430;16.936;2024-03-23T02:11:19;61.13;;;22.50;;
53903;SDS011;39812;52.430;16.936;2024-03-23T02:13:44;59.33;;;21.77;;
53903;SDS011;39812;52.430;16.936;2024-03-23T02:16:10;58.55;;;22.85;;
53903;SDS011;39812;52.430;16.936;2024-03-23T02:18:36;57.83;;;23.35;;
53903;SDS011;39812;52.430;16.936;2024-03-23T02:21:01;73.55;;;25.02;;
53903;SDS011;39812;52.430;16.936;2024-03-23T02:23:27;53.22;;;21.75;;
53903;SDS011;39812;52.430;16.936;2024-03-23T02:25:53;63.50;;;24.45;;
53903;SDS011;39812;52.430;16.936;2024-03-23T02:28:19;54.42;;;20.98;;
53903;SDS011;39812;52.430;16.936;2024-03-23T02:30:45;56.17;;;20.95;;
53903;SDS011;39812;52.430;16.936;2024-03-23T02:33:11;51.53;;;21.33;;
53903;SDS011;39812;52.430;16.936;2024-03-23T02:35:36;59.88;;;20.77;;
53903;SDS011;39812;52.430;16.936;2024-03-23T02:38:02;61.13;;;23.42;;
53903;SDS011;39812;52.430;16.936;2024-03-23T02:40:28;64.72;;;23.98;;
53903;SDS011;39812;52.430;16.936;2024-03-23T02:42:54;72.63;;;24.42;;
53903;SDS011;39812;52.430;16.936;2024-03-23T02:45:20;68.40;;;24.65;;
53903;SDS011;39812;52.430;16.936;2024-03-23T02:47:45;62.05;;;23.65;;
53903;SDS011;39812;52.430;16.936;2024-03-23T02:50:11;62.40;;;22.65;;
53903;SDS011;39812;52.430;16.936;2024-03-23T02:52:37;64.40;;;23.20;;
53903;SDS011;39812;52.430;16.936;2024-03-23T02:55:03;63.83;;;22.45;;
53903;SDS011;39812;52.430;16.936;2024-03-23T02:57:29;63.35;;;23.70;;
53903;SDS011;39812;52.430;16.936;2024-03-23T02:59:54;58.22;;;22.40;;
53903;SDS011;39812;52.430;16.936;2024-03-23T03:02:20;55.65;;;22.05;;
53903;SDS011;39812;52.430;16.936;2024-03-23T03:04:46;59.38;;;23.73;;
53903;SDS011;39812;52.430;16.936;2024-03-23T03:07:12;64.00;;;22.05;;
53903;SDS011;39812;52.430;16.936;2024-03-23T03:09:38;56.53;;;22.25;;
53903;SDS011;39812;52.430;16.936;2024-03-23T03:12:04;60.75;;;22.52;;
53903;SDS011;39812;52.430;16.936;2024-03-23T03:14:30;64.20;;;22.92;;
53903;SDS011;39812;52.430;16.936;2024-03-23T03:16:56;56.17;;;21.63;;
53903;SDS011;39812;52.430;16.936;2024-03-23T03:19:22;50.95;;;21.42;;
53903;SDS011;39812;52.430;16.936;2024-03-23T03:21:47;58.05;;;22.83;;
53903;SDS011;39812;52.430;16.936;2024-03-23T03:24:13;60.35;;;21.73;;
53903;SDS011;39812;52.430;16.936;2024-03-23T03:26:39;49.22;;;19.90;;
53903;SDS011;39812;52.430;16.936;2024-03-23T03:29:04;63.50;;;22.08;;
53903;SDS011;39812;52.430;16.936;2024-03-23T03:31:30;50.47;;;19.70;;
53903;SDS011;39812;52.430;16.936;2024-03-23T03:33:56;49.58;;;18.50;;
53903;SDS011;39812;52.430;16.936;2024-03-23T03:36:21;50.30;;;19.38;;
53903;SDS011;39812;52.430;16.936;2024-03-23T03:38:47;46.83;;;17.90;;
53903;SDS011;39812;52.430;16.936;2024-03-23T03:41:12;52.03;;;19.33;;
53903;SDS011;39812;52.430;16.936;2024-03-23T03:43:38;41.40;;;18.33;;
53903;SDS011;39812;52.430;16.936;2024-03-23T03:46:04;53.70;;;20.95;;
53903;SDS011;39812;52.430;16.936;2024-03-23T03:48:30;52.58;;;20.63;;
53903;SDS011;39812;52.430;16.936;2024-03-23T03:50:55;55.38;;;21.27;;
53903;SDS011;39812;52.430;16.936;2024-03-23T03:53:21;55.35;;;19.45;;
53903;SDS011;39812;52.430;16.936;2024-03-23T03:55:47;50.78;;;20.42;;
53903;SDS011;39812;52.430;16.936;2024-03-23T03:58:12;51.90;;;20.17;;
53903;SDS011;39812;52.430;16.936;2024-03-23T04:00:39;53.15;;;20.25;;
53903;SDS011;39812;52.430;16.936;2024-03-23T04:03:04;61.95;;;20.92;;
53903;SDS011;39812;52.430;16.936;2024-03-23T04:05:30;49.95;;;21.30;;
53903;SDS011;39812;52.430;16.936;2024-03-23T04:07:55;53.78;;;19.17;;
53903;SDS011;39812;52.430;16.936;2024-03-23T04:10:21;47.70;;;19.33;;
53903;SDS011;39812;52.430;16.936;2024-03-23T04:12:47;55.67;;;19.50;;
53903;SDS011;39812;52.430;16.936;2024-03-23T04:15:12;13.43;;;5.88;;
53903;SDS011;39812;52.430;16.936;2024-03-23T04:17:38;11.85;;;4.13;;
53903;SDS011;39812;52.430;16.936;2024-03-23T04:20:06;9.57;;;3.58;;
53903;SDS011;39812;52.430;16.936;2024-03-23T04:22:36;10.50;;;3.03;;
53903;SDS011;39812;52.430;16.936;2024-03-23T04:25:05;9.50;;;3.25;;
53903;SDS011;39812;52.430;16.936;2024-03-23T04:27:34;7.65;;;2.95;;
53903;SDS011;39812;52.430;16.936;2024-03-23T04:30:00;10.70;;;3.90;;
53903;SDS011;39812;52.430;16.936;2024-03-23T04:32:27;7.43;;;3.10;;
53903;SDS011;39812;52.430;16.936;2024-03-23T04:34:53;10.77;;;3.50;;
53903;SDS011;39812;52.430;16.936;2024-03-23T04:37:19;7.72;;;3.65;;
53903;SDS011;39812;52.430;16.936;2024-03-23T04:39:45;11.88;;;3.63;;
53903;SDS011;39812;52.430;16.936;2024-03-23T04:42:11;7.80;;;3.55;;
53903;SDS011;39812;52.430;16.936;2024-03-23T04:44:37;11.07;;;3.25;;
53903;SDS011;39812;52.430;16.936;2024-03-23T04:47:02;7.25;;;2.85;;
53903;SDS011;39812;52.430;16.936;2024-03-23T04:49:28;10.40;;;3.35;;
53903;SDS011;39812;52.430;16.936;2024-03-23T04:51:54;6.47;;;3.20;;
53903;SDS011;39812;52.430;16.936;2024-03-23T04:54:20;10.80;;;3.13;;
53903;SDS011;39812;52.430;16.936;2024-03-23T04:56:46;5.18;;;3.00;;
53903;SDS011;39812;52.430;16.936;2024-03-23T04:59:12;6.72;;;2.97;;
53903;SDS011;39812;52.430;16.936;2024-03-23T05:01:37;11.60;;;3.33;;
53903;SDS011;39812;52.430;16.936;2024-03-23T05:04:05;9.13;;;2.63;;
53903;SDS011;39812;52.430;16.936;2024-03-23T05:06:30;10.05;;;2.63;;
53903;SDS011;39812;52.430;16.936;2024-03-23T05:08:56;10.07;;;3.10;;
53903;SDS011;39812;52.430;16.936;2024-03-23T05:11:22;10.07;;;3.03;;
53903;SDS011;39812;52.430;16.936;2024-03-23T05:13:47;7.10;;;2.63;;
53903;SDS011;39812;52.430;16.936;2024-03-23T05:16:13;8.80;;;3.70;;
53903;SDS011;39812;52.430;16.936;2024-03-23T05:18:38;12.70;;;3.13;;
53903;SDS011;39812;52.430;16.936;2024-03-23T05:21:04;10.65;;;3.25;;
53903;SDS011;39812;52.430;16.936;2024-03-23T05:23:30;9.15;;;2.88;;
53903;SDS011;39812;52.430;16.936;2024-03-23T05:25:56;10.95;;;3.97;;
53903;SDS011;39812;52.430;16.936;2024-03-23T05:28:22;11.35;;;2.92;;
53903;SDS011;39812;52.430;16.936;2024-03-23T05:30:54;11.63;;;3.65;;
53903;SDS011;39812;52.430;16.936;2024-03-23T05:33:20;15.35;;;3.33;;
53903;SDS011;39812;52.430;16.936;2024-03-23T05:35:46;10.73;;;2.97;;
53903;SDS011;39812;52.430;16.936;2024-03-23T05:38:12;16.00;;;3.40;;
53903;SDS011;39812;52.430;16.936;2024-03-23T05:40:38;15.77;;;3.25;;
53903;SDS011;39812;52.430;16.936;2024-03-23T05:43:08;13.85;;;3.13;;
53903;SDS011;39812;52.430;16.936;2024-03-23T05:45:34;13.95;;;3.22;;
53903;SDS011;39812;52.430;16.936;2024-03-23T05:47:59;16.55;;;3.65;;
53903;SDS011;39812;52.430;16.936;2024-03-23T05:50:25;16.25;;;3.45;;
53903;SDS011;39812;52.430;16.936;2024-03-23T05:52:51;11.65;;;3.28;;
53903;SDS011;39812;52.430;16.936;2024-03-23T05:55:16;7.65;;;2.30;;
53903;SDS011;39812;52.430;16.936;2024-03-23T05:57:42;10.48;;;2.55;;
53903;SDS011;39812;52.430;16.936;2024-03-23T06:00:07;6.47;;;2.00;;
53903;SDS011;39812;52.430;16.936;2024-03-23T06:02:42;15.32;;;3.40;;
53903;SDS011;39812;52.430;16.936;2024-03-23T06:05:09;10.40;;;2.40;;
53903;SDS011;39812;52.430;16.936;2024-03-23T06:07:38;12.88;;;3.22;;
53903;SDS011;39812;52.430;16.936;2024-03-23T06:10:04;8.88;;;2.33;;
53903;SDS011;39812;52.430;16.936;2024-03-23T06:12:30;8.82;;;2.85;;
53903;SDS011;39812;52.430;16.936;2024-03-23T06:14:56;10.70;;;2.20;;
53903;SDS011;39812;52.430;16.936;2024-03-23T06:17:22;15.77;;;2.70;;
53903;SDS011;39812;52.430;16.936;2024-03-23T06:19:48;6.88;;;2.40;;
53903;SDS011;39812;52.430;16.936;2024-03-23T06:22:14;9.52;;;2.65;;
53903;SDS011;39812;52.430;16.936;2024-03-23T06:24:40;10.45;;;3.20;;
53903;SDS011;39812;52.430;16.936;2024-03-23T06:27:05;14.10;;;3.22;;
53903;SDS011;39812;52.430;16.936;2024-03-23T06:29:31;9.65;;;3.00;;
53903;SDS011;39812;52.430;16.936;2024-03-23T06:31:57;12.90;;;2.55;;
53903;SDS011;39812;52.430;16.936;2024-03-23T06:34:23;13.95;;;3.30;;
53903;SDS011;39812;52.430;16.936;2024-03-23T06:36:49;7.30;;;2.33;;
53903;SDS011;39812;52.430;16.936;2024-03-23T06:39:15;16.20;;;2.95;;
53903;SDS011;39812;52.430;16.936;2024-03-23T06:42:02;9.82;;;2.78;;
53903;SDS011;39812;52.430;16.936;2024-03-23T06:44:27;11.65;;;3.13;;
53903;SDS011;39812;52.430;16.936;2024-03-23T06:46:53;15.63;;;3.28;;
53903;SDS011;39812;52.430;16.936;2024-03-23T06:49:18;7.68;;;2.03;;
53903;SDS011;39812;52.430;16.936;2024-03-23T06:51:44;14.18;;;2.78;;
53903;SDS011;39812;52.430;16.936;2024-03-23T06:54:10;12.93;;;3.35;;
53903;SDS011;39812;52.430;16.936;2024-03-23T06:56:36;7.25;;;3.05;;
53903;SDS011;39812;52.430;16.936;2024-03-23T06:59:01;14.75;;;3.13;;
53903;SDS011;39812;52.430;16.936;2024-03-23T07:01:27;16.35;;;3.65;;
53903;SDS011;39812;52.430;16.936;2024-03-23T07:03:53;14.40;;;3.60;;
53903;SDS011;39812;52.430;16.936;2024-03-23T07:06:19;11.95;;;3.33;;
53903;SDS011;39812;52.430;16.936;2024-03-23T07:08:45;9.05;;;2.25;;
53903;SDS011;39812;52.430;16.936;2024-03-23T07:11:10;12.30;;;2.70;;
53903;SDS011;39812;52.430;16.936;2024-03-23T07:13:36;9.63;;;2.58;;
53903;SDS011;39812;52.430;16.936;2024-03-23T07:16:02;13.90;;;2.75;;
53903;SDS011;39812;52.430;16.936;2024-03-23T07:18:28;10.18;;;3.15;;
53903;SDS011;39812;52.430;16.936;2024-03-23T07:20:54;9.90;;;2.80;;
53903;SDS011;39812;52.430;16.936;2024-03-23T07:23:21;15.32;;;3.67;;
53903;SDS011;39812;52.430;16.936;2024-03-23T07:25:57;12.63;;;2.83;;
53903;SDS011;39812;52.430;16.936;2024-03-23T07:28:24;9.60;;;3.08;;
53903;SDS011;39812;52.430;16.936;2024-03-23T07:31:08;11.00;;;2.60;;
53903;SDS011;39812;52.430;16.936;2024-03-23T07:33:35;15.27;;;2.95;;
53903;SDS011;39812;52.430;16.936;2024-03-23T07:36:02;9.80;;;2.75;;
53903;SDS011;39812;52.430;16.936;2024-03-23T07:38:28;15.70;;;3.03;;
53903;SDS011;39812;52.430;16.936;2024-03-23T07:41:06;15.90;;;2.78;;
53903;SDS011;39812;52.430;16.936;2024-03-23T07:43:34;8.25;;;2.42;;
53903;SDS011;39812;52.430;16.936;2024-03-23T07:46:00;11.77;;;2.70;;
53903;SDS011;39812;52.430;16.936;2024-03-23T07:48:26;7.85;;;2.35;;
53903;SDS011;39812;52.430;16.936;2024-03-23T07:51:06;14.15;;;3.40;;
53903;SDS011;39812;52.430;16.936;2024-03-23T07:53:34;9.95;;;2.70;;
53903;SDS011;39812;52.430;16.936;2024-03-23T07:56:05;10.07;;;2.65;;
53903;SDS011;39812;52.430;16.936;2024-03-23T07:58:31;8.27;;;3.00;;
53903;SDS011;39812;52.430;16.936;2024-03-23T08:01:03;11.05;;;2.85;;
53903;SDS011;39812;52.430;16.936;2024-03-23T08:03:33;11.30;;;3.30;;
53903;SDS011;39812;52.430;16.936;2024-03-23T08:06:06;14.15;;;2.60;;
53903;SDS011;39812;52.430;16.936;2024-03-23T08:08:33;13.15;;;2.92;;
53903;SDS011;39812;52.430;16.936;2024-03-23T08:10:59;10.45;;;2.10;;
53903;SDS011;39812;52.430;16.936;2024-03-23T08:13:24;11.20;;;2.70;;
53903;SDS011;39812;52.430;16.936;2024-03-23T08:15:50;14.27;;;2.50;;
53903;SDS011;39812;52.430;16.936;2024-03-23T08:18:16;12.52;;;2.50;;
53903;SDS011;39812;52.430;16.936;2024-03-23T08:20:41;10.45;;;2.58;;
53903;SDS011;39812;52.430;16.936;2024-03-23T08:23:07;15.70;;;3.20;;
53903;SDS011;39812;52.430;16.936;2024-03-23T08:25:33;9.82;;;2.88;;
53903;SDS011;39812;52.430;16.936;2024-03-23T08:27:59;8.20;;;2.58;;
53903;SDS011;39812;52.430;16.936;2024-03-23T08:30:25;11.45;;;2.42;;
53903;SDS011;39812;52.430;16.936;2024-03-23T08:32:51;9.10;;;2.67;;
53903;SDS011;39812;52.430;16.936;2024-03-23T08:35:17;9.38;;;2.50;;
53903;SDS011;39812;52.430;16.936;2024-03-23T08:37:42;13.52;;;3.10;;
53903;SDS011;39812;52.430;16.936;2024-03-23T08:40:08;13.73;;;2.80;;
53903;SDS011;39812;52.430;16.936;2024-03-23T08:42:34;10.93;;;3.15;;
53903;SDS011;39812;52.430;16.936;2024-03-23T08:45:00;13.30;;;3.28;;
53903;SDS011;39812;52.430;16.936;2024-03-23T08:47:26;10.95;;;3.40;;
53903;SDS011;39812;52.430;16.936;2024-03-23T08:49:51;14.50;;;3.95;;
53903;SDS011;39812;52.430;16.936;2024-03-23T08:52:17;13.25;;;3.65;;
53903;SDS011;39812;52.430;16.936;2024-03-23T08:54:43;13.60;;;3.38;;
53903;SDS011;39812;52.430;16.936;2024-03-23T08:57:08;17.63;;;5.57;;
53903;SDS011;39812;52.430;16.936;2024-03-23T08:59:34;27.85;;;4.53;;
53903;SDS011;39812;52.430;16.936;2024-03-23T09:01:59;12.65;;;3.50;;
53903;SDS011;39812;52.430;16.936;2024-03-23T09:04:25;8.98;;;2.85;;
53903;SDS011;39812;52.430;16.936;2024-03-23T09:06:51;11.07;;;2.95;;
53903;SDS011;39812;52.430;16.936;2024-03-23T09:09:17;9.32;;;3.17;;
53903;SDS011;39812;52.430;16.936;2024-03-23T09:11:42;12.15;;;3.20;;
53903;SDS011;39812;52.430;16.936;2024-03-23T09:14:08;13.95;;;2.72;;
53903;SDS011;39812;52.430;16.936;2024-03-23T09:16:34;14.50;;;3.13;;
53903;SDS011;39812;52.430;16.936;2024-03-23T09:19:00;13.20;;;3.53;;
53903;SDS011;39812;52.430;16.936;2024-03-23T09:21:25;9.35;;;3.47;;
53903;SDS011;39812;52.430;16.936;2024-03-23T09:23:51;8.48;;;2.55;;
53903;SDS011;39812;52.430;16.936;2024-03-23T09:26:17;9.82;;;3.08;;
53903;SDS011;39812;52.430;16.936;2024-03-23T09:28:43;10.88;;;3.88;;
53903;SDS011;39812;52.430;16.936;2024-03-23T09:31:08;10.25;;;2.47;;
53903;SDS011;39812;52.430;16.936;2024-03-23T09:33:39;7.75;;;2.72;;
53903;SDS011;39812;52.430;16.936;2024-03-23T09:36:05;9.15;;;2.70;;
53903;SDS011;39812;52.430;16.936;2024-03-23T09:38:31;10.77;;;3.28;;
53903;SDS011;39812;52.430;16.936;2024-03-23T09:40:57;11.27;;;3.65;;
53903;SDS011;39812;52.430;16.936;2024-03-23T09:43:24;10.57;;;3.08;;
53903;SDS011;39812;52.430;16.936;2024-03-23T09:45:50;11.98;;;3.20;;
53903;SDS011;39812;52.430;16.936;2024-03-23T09:48:16;7.85;;;3.47;;
53903;SDS011;39812;52.430;16.936;2024-03-23T09:50:43;15.90;;;2.92;;
53903;SDS011;39812;52.430;16.936;2024-03-23T09:53:10;15.95;;;3.40;;
53903;SDS011;39812;52.430;16.936;2024-03-23T09:55:37;11.20;;;2.92;;
53903;SDS011;39812;52.430;16.936;2024-03-23T09:58:04;13.52;;;2.95;;
53903;SDS011;39812;52.430;16.936;2024-03-23T10:00:30;8.77;;;2.97;;
53903;SDS011;39812;52.430;16.936;2024-03-23T10:02:57;14.80;;;3.25;;
53903;SDS011;39812;52.430;16.936;2024-03-23T10:05:26;13.73;;;3.15;;
53903;SDS011;39812;52.430;16.936;2024-03-23T10:07:52;8.88;;;3.50;;
53903;SDS011;39812;52.430;16.936;2024-03-23T10:10:18;9.18;;;3.30;;
53903;SDS011;39812;52.430;16.936;2024-03-23T10:12:47;13.00;;;3.17;;
53903;SDS011;39812;52.430;16.936;2024-03-23T10:15:23;12.77;;;3.00;;
53903;SDS011;39812;52.430;16.936;2024-03-23T10:17:50;11.30;;;3.30;;
53903;SDS011;39812;52.430;16.936;2024-03-23T10:20:22;11.40;;;3.20;;
53903;SDS011;39812;52.430;16.936;2024-03-23T10:22:49;11.30;;;2.88;;
53903;SDS011;39812;52.430;16.936;2024-03-23T10:25:16;9.63;;;3.58;;
53903;SDS011;39812;52.430;16.936;2024-03-23T10:27:42;8.50;;;2.95;;
53903;SDS011;39812;52.430;16.936;2024-03-23T10:30:14;13.18;;;3.58;;
53903;SDS011;39812;52.430;16.936;2024-03-23T10:32:40;8.63;;;3.05;;
53903;SDS011;39812;52.430;16.936;2024-03-23T10:35:19;11.07;;;2.72;;
53903;SDS011;39812;52.430;16.936;2024-03-23T10:37:49;8.93;;;2.67;;
53903;SDS011;39812;52.430;16.936;2024-03-23T10:40:16;9.43;;;2.90;;
53903;SDS011;39812;52.430;16.936;2024-03-23T10:42:43;11.90;;;2.85;;
53903;SDS011;39812;52.430;16.936;2024-03-23T10:45:09;13.95;;;3.63;;
53903;SDS011;39812;52.430;16.936;2024-03-23T10:47:35;7.60;;;3.03;;
53903;SDS011;39812;52.430;16.936;2024-03-23T10:50:02;9.93;;;3.45;;
53903;SDS011;39812;52.430;16.936;2024-03-23T10:52:30;9.77;;;3.53;;
53903;SDS011;39812;52.430;16.936;2024-03-23T10:54:56;9.18;;;3.28;;
53903;SDS011;39812;52.430;16.936;2024-03-23T10:57:26;10.25;;;3.03;;
53903;SDS011;39812;52.430;16.936;2024-03-23T10:59:56;7.50;;;3.50;;
53903;SDS011;39812;52.430;16.936;2024-03-23T11:02:22;11.45;;;3.20;;
53903;SDS011;39812;52.430;16.936;2024-03-23T11:04:48;13.60;;;2.85;;
53903;SDS011;39812;52.430;16.936;2024-03-23T11:09:48;12.48;;;3.33;;
53903;SDS011;39812;52.430;16.936;2024-03-23T11:14:52;13.32;;;3.92;;
53903;SDS011;39812;52.430;16.936;2024-03-23T11:17:27;9.48;;;3.33;;
53903;SDS011;39812;52.430;16.936;2024-03-23T11:20:00;11.75;;;3.42;;
53903;SDS011;39812;52.430;16.936;2024-03-23T11:25:45;12.02;;;3.22;;
53903;SDS011;39812;52.430;16.936;2024-03-23T11:27:52;12.23;;;3.45;;
53903;SDS011;39812;52.430;16.936;2024-03-23T11:32:47;8.70;;;3.45;;
53903;SDS011;39812;52.430;16.936;2024-03-23T11:35:30;11.30;;;2.88;;
53903;SDS011;39812;52.430;16.936;2024-03-23T11:38:03;8.35;;;3.42;;
53903;SDS011;39812;52.430;16.936;2024-03-23T11:40:29;10.30;;;3.15;;
53903;SDS011;39812;52.430;16.936;2024-03-23T11:42:58;7.40;;;2.70;;
53903;SDS011;39812;52.430;16.936;2024-03-23T11:45:25;13.20;;;3.70;;
53903;SDS011;39812;52.430;16.936;2024-03-23T11:48:07;10.43;;;3.20;;
53903;SDS011;39812;52.430;16.936;2024-03-23T11:50:35;5.70;;;2.65;;
53903;SDS011;39812;52.430;16.936;2024-03-23T11:53:06;8.23;;;2.97;;
53903;SDS011;39812;52.430;16.936;2024-03-23T11:56:06;7.57;;;2.75;;
53903;SDS011;39812;52.430;16.936;2024-03-23T11:58:27;8.23;;;2.97;;
53903;SDS011;39812;52.430;16.936;2024-03-23T12:01:00;6.13;;;2.65;;
53903;SDS011;39812;52.430;16.936;2024-03-23T12:03:28;10.30;;;3.13;;
53903;SDS011;39812;52.430;16.936;2024-03-23T12:05:55;7.20;;;3.05;;
53903;SDS011;39812;52.430;16.936;2024-03-23T12:10:49;5.57;;;2.97;;
53903;SDS011;39812;52.430;16.936;2024-03-23T12:13:29;6.28;;;2.60;;
53903;SDS011;39812;52.430;16.936;2024-03-23T12:15:54;4.85;;;2.92;;
53903;SDS011;39812;52.430;16.936;2024-03-23T12:18:23;6.15;;;2.72;;
53903;SDS011;39812;52.430;16.936;2024-03-23T12:20:49;7.30;;;2.97;;
53903;SDS011;39812;52.430;16.936;2024-03-23T12:23:15;6.75;;;2.70;;
53903;SDS011;39812;52.430;16.936;2024-03-23T12:25:41;7.10;;;2.55;;
53903;SDS011;39812;52.430;16.936;2024-03-23T12:28:06;4.50;;;2.78;;
53903;SDS011;39812;52.430;16.936;2024-03-23T12:30:33;5.68;;;2.60;;
53903;SDS011;39812;52.430;16.936;2024-03-23T12:32:59;9.88;;;3.08;;
53903;SDS011;39812;52.430;16.936;2024-03-23T12:35:25;7.32;;;2.90;;
53903;SDS011;39812;52.430;16.936;2024-03-23T12:37:51;4.55;;;2.72;;
53903;SDS011;39812;52.430;16.936;2024-03-23T12:40:16;3.92;;;2.20;;
53903;SDS011;39812;52.430;16.936;2024-03-23T12:42:42;4.40;;;2.10;;
53903;SDS011;39812;52.430;16.936;2024-03-23T12:45:07;4.15;;;2.28;;
53903;SDS011;39812;52.430;16.936;2024-03-23T12:47:33;5.35;;;2.55;;
53903;SDS011;39812;52.430;16.936;2024-03-23T12:49:59;3.67;;;2.05;;
53903;SDS011;39812;52.430;16.936;2024-03-23T12:52:25;3.72;;;2.10;;
53903;SDS011;39812;52.430;16.936;2024-03-23T12:54:54;3.22;;;1.88;;
53903;SDS011;39812;52.430;16.936;2024-03-23T12:57:25;3.78;;;1.70;;
53903;SDS011;39812;52.430;16.936;2024-03-23T12:59:52;6.82;;;2.28;;
53903;SDS011;39812;52.430;16.936;2024-03-23T13:02:21;5.13;;;2.40;;
53903;SDS011;39812;52.430;16.936;2024-03-23T13:04:49;4.13;;;2.50;;
53903;SDS011;39812;52.430;16.936;2024-03-23T13:07:15;4.70;;;2.58;;
53903;SDS011;39812;52.430;16.936;2024-03-23T13:09:41;5.10;;;3.40;;
53903;SDS011;39812;52.430;16.936;2024-03-23T13:12:07;6.35;;;3.63;;
53903;SDS011;39812;52.430;16.936;2024-03-23T13:14:33;5.00;;;3.22;;
53903;SDS011;39812;52.430;16.936;2024-03-23T13:16:59;4.78;;;3.30;;
53903;SDS011;39812;52.430;16.936;2024-03-23T13:19:26;6.28;;;2.53;;
53903;SDS011;39812;52.430;16.936;2024-03-23T13:21:56;4.85;;;2.08;;
53903;SDS011;39812;52.430;16.936;2024-03-23T13:24:23;5.43;;;2.22;;
53903;SDS011;39812;52.430;16.936;2024-03-23T13:26:49;5.80;;;1.80;;
53903;SDS011;39812;52.430;16.936;2024-03-23T13:29:16;6.53;;;2.28;;
53903;SDS011;39812;52.430;16.936;2024-03-23T13:31:41;4.47;;;2.20;;
53903;SDS011;39812;52.430;16.936;2024-03-23T13:34:07;3.33;;;2.17;;
53903;SDS011;39812;52.430;16.936;2024-03-23T13:36:32;3.80;;;2.20;;
53903;SDS011;39812;52.430;16.936;2024-03-23T13:38:58;4.32;;;2.20;;
53903;SDS011;39812;52.430;16.936;2024-03-23T13:41:25;3.10;;;1.92;;
53903;SDS011;39812;52.430;16.936;2024-03-23T13:43:52;3.22;;;1.88;;
53903;SDS011;39812;52.430;16.936;2024-03-23T13:46:18;1.92;;;1.35;;
53903;SDS011;39812;52.430;16.936;2024-03-23T13:48:43;3.28;;;1.40;;
53903;SDS011;39812;52.430;16.936;2024-03-23T13:51:09;2.05;;;1.80;;
53903;SDS011;39812;52.430;16.936;2024-03-23T13:53:34;4.65;;;1.75;;
53903;SDS011;39812;52.430;16.936;2024-03-23T13:56:00;2.75;;;1.63;;
53903;SDS011;39812;52.430;16.936;2024-03-23T13:58:26;2.33;;;1.20;;
53903;SDS011;39812;52.430;16.936;2024-03-23T14:00:51;1.40;;;0.90;;
53903;SDS011;39812;52.430;16.936;2024-03-23T14:03:17;1.88;;;0.90;;
53903;SDS011;39812;52.430;16.936;2024-03-23T14:05:46;1.25;;;0.88;;
53903;SDS011;39812;52.430;16.936;2024-03-23T14:08:14;1.42;;;0.90;;
53903;SDS011;39812;52.430;16.936;2024-03-23T14:10:41;1.90;;;1.10;;
53903;SDS011;39812;52.430;16.936;2024-03-23T14:13:07;2.78;;;1.33;;
53903;SDS011;39812;52.430;16.936;2024-03-23T14:15:33;4.55;;;1.48;;
53903;SDS011;39812;52.430;16.936;2024-03-23T14:17:58;1.40;;;1.23;;
53903;SDS011;39812;52.430;16.936;2024-03-23T14:20:24;3.13;;;2.15;;
53903;SDS011;39812;52.430;16.936;2024-03-23T14:22:51;2.22;;;1.50;;
53903;SDS011;39812;52.430;16.936;2024-03-23T14:25:17;3.25;;;1.92;;
53903;SDS011;39812;52.430;16.936;2024-03-23T14:27:46;2.58;;;2.05;;
53903;SDS011;39812;52.430;16.936;2024-03-23T14:30:12;2.80;;;1.65;;
53903;SDS011;39812;52.430;16.936;2024-03-23T14:32:38;2.22;;;0.93;;
53903;SDS011;39812;52.430;16.936;2024-03-23T14:35:05;1.48;;;1.05;;
53903;SDS011;39812;52.430;16.936;2024-03-23T14:37:32;2.83;;;1.50;;
53903;SDS011;39812;52.430;16.936;2024-03-23T14:39:58;3.53;;;1.20;;
53903;SDS011;39812;52.430;16.936;2024-03-23T14:42:24;1.60;;;1.20;;
53903;SDS011;39812;52.430;16.936;2024-03-23T14:44:51;4.50;;;1.45;;
53903;SDS011;39812;52.430;16.936;2024-03-23T14:47:18;1.60;;;1.17;;
53903;SDS011;39812;52.430;16.936;2024-03-23T14:49:44;2.20;;;1.42;;
53903;SDS011;39812;52.430;16.936;2024-03-23T14:52:15;3.53;;;1.38;;
53903;SDS011;39812;52.430;16.936;2024-03-23T14:54:44;2.15;;;1.10;;
53903;SDS011;39812;52.430;16.936;2024-03-23T14:57:10;1.45;;;0.93;;
53903;SDS011;39812;52.430;16.936;2024-03-23T14:59:36;0.68;;;0.60;;
53903;SDS011;39812;52.430;16.936;2024-03-23T15:02:05;3.22;;;1.65;;
53903;SDS011;39812;52.430;16.936;2024-03-23T15:04:32;3.63;;;1.60;;
53903;SDS011;39812;52.430;16.936;2024-03-23T15:06:58;2.15;;;1.30;;
53903;SDS011;39812;52.430;16.936;2024-03-23T15:09:23;2.85;;;1.60;;
53903;SDS011;39812;52.430;16.936;2024-03-23T15:11:49;2.00;;;1.38;;
53903;SDS011;39812;52.430;16.936;2024-03-23T15:14:15;4.68;;;2.00;;
53903;SDS011;39812;52.430;16.936;2024-03-23T15:16:40;2.42;;;1.45;;
53903;SDS011;39812;52.430;16.936;2024-03-23T15:19:07;3.33;;;1.85;;
53903;SDS011;39812;52.430;16.936;2024-03-23T15:21:33;1.95;;;1.15;;
53903;SDS011;39812;52.430;16.936;2024-03-23T15:23:59;1.90;;;1.60;;
53903;SDS011;39812;52.430;16.936;2024-03-23T15:26:25;2.08;;;1.20;;
53903;SDS011;39812;52.430;16.936;2024-03-23T15:28:50;3.08;;;1.50;;